sensor_id;sensor_type;location;lat;lon;timestamp;temperature;humidity
17607;DHT22;8922;52.240;20.980;2022-08-01T00:00:15;16.50;99.90
17607;DHT22;8922;52.240;20.980;2022-08-01T00:02:43;16.50;99.90
17607;DHT22;8922;52.240;20.980;2022-08-01T00:05:10;16.50;99.90
17607;DHT22;8922;52.240;20.980;2022-08-01T00:07:37;16.50;99.90
17607;DHT22;8922;52.240;20.980;2022-08-01T00:10:06;16.40;99.90
17607;DHT22;8922;52.240;20.980;2022-08-01T00:12:33;16.40;99.90
17607;DHT22;8922;52.240;20.980;2022-08-01T00:15:00;16.40;99.90
17607;DHT22;8922;52.240;20.980;2022-08-01T00:17:26;16.40;99.90
17607;DHT22;8922;52.240;20.980;2022-08-01T00:19:54;16.40;99.90
17607;DHT22;8922;52.240;20.980;2022-08-01T00:22:21;16.40;99.90
17607;DHT22;8922;52.240;20.980;2022-08-01T00:24:48;16.30;99.90
17607;DHT22;8922;52.240;20.980;2022-08-01T00:27:15;16.30;99.90
17607;DHT22;8922;52.240;20.980;2022-08-01T00:29:42;16.30;99.90
17607;DHT22;8922;52.240;20.980;2022-08-01T00:32:08;16.30;99.90
17607;DHT22;8922;52.240;20.980;2022-08-01T00:34:35;16.20;99.90
17607;DHT22;8922;52.240;20.980;2022-08-01T00:37:03;16.30;99.90
17607;DHT22;8922;52.240;20.980;2022-08-01T00:39:30;16.20;99.90
17607;DHT22;8922;52.240;20.980;2022-08-01T00:41:58;16.20;99.90
17607;DHT22;8922;52.240;20.980;2022-08-01T00:44:25;16.20;99.90
17607;DHT22;8922;52.240;20.980;2022-08-01T00:46:52;16.20;99.90
17607;DHT22;8922;52.240;20.980;2022-08-01T00:49:18;16.20;99.90
17607;DHT22;8922;52.240;20.980;2022-08-01T00:51:45;16.10;99.90
17607;DHT22;8922;52.240;20.980;2022-08-01T00:54:14;16.20;99.90
17607;DHT22;8922;52.240;20.980;2022-08-01T00:56:41;16.10;99.90
17607;DHT22;8922;52.240;20.980;2022-08-01T00:59:08;16.10;99.90
17607;DHT22;8922;52.240;20.980;2022-08-01T01:01:35;16.10;99.90
17607;DHT22;8922;52.240;20.980;2022-08-01T01:04:02;16.10;99.90
17607;DHT22;8922;52.240;20.980;2022-08-01T01:06:36;16.10;99.90
17607;DHT22;8922;52.240;20.980;2022-08-01T01:09:20;16.10;99.90
17607;DHT22;8922;52.240;20.980;2022-08-01T01:11:58;16.10;99.90
17607;DHT22;8922;52.240;20.980;2022-08-01T01:14:32;16.10;99.90
17607;DHT22;8922;52.240;20.980;2022-08-01T01:17:00;16.10;99.90
17607;DHT22;8922;52.240;20.980;2022-08-01T01:19:30;16.10;99.90
17607;DHT22;8922;52.240;20.980;2022-08-01T01:22:21;16.10;99.90
17607;DHT22;8922;52.240;20.980;2022-08-01T01:25:02;16.10;99.90
17607;DHT22;8922;52.240;20.980;2022-08-01T01:27:42;16.10;99.90
17607;DHT22;8922;52.240;20.980;2022-08-01T01:30:13;16.10;99.90
17607;DHT22;8922;52.240;20.980;2022-08-01T01:32:43;16.00;99.90
17607;DHT22;8922;52.240;20.980;2022-08-01T01:35:15;16.00;99.90
17607;DHT22;8922;52.240;20.980;2022-08-01T01:37:44;16.00;99.90
17607;DHT22;8922;52.240;20.980;2022-08-01T01:40:13;15.90;99.90
17607;DHT22;8922;52.240;20.980;2022-08-01T01:42:41;16.00;99.90
17607;DHT22;8922;52.240;20.980;2022-08-01T01:45:09;15.90;99.90
17607;DHT22;8922;52.240;20.980;2022-08-01T01:47:38;15.90;99.90
17607;DHT22;8922;52.240;20.980;2022-08-01T01:50:06;15.90;99.90
17607;DHT22;8922;52.240;20.980;2022-08-01T01:52:35;15.80;99.90
17607;DHT22;8922;52.240;20.980;2022-08-01T01:55:06;15.80;99.90
17607;DHT22;8922;52.240;20.980;2022-08-01T01:57:36;15.80;99.90
17607;DHT22;8922;52.240;20.980;2022-08-01T02:00:05;15.70;99.90
17607;DHT22;8922;52.240;20.980;2022-08-01T02:02:33;15.70;99.90
17607;DHT22;8922;52.240;20.980;2022-08-01T02:05:02;15.60;99.90
17607;DHT22;8922;52.240;20.980;2022-08-01T02:07:30;15.60;99.90
17607;DHT22;8922;52.240;20.980;2022-08-01T02:10:00;15.60;99.90
17607;DHT22;8922;52.240;20.980;2022-08-01T02:12:29;15.50;99.90
17607;DHT22;8922;52.240;20.980;2022-08-01T02:15:00;15.50;99.90
17607;DHT22;8922;52.240;20.980;2022-08-01T02:17:30;15.50;99.90
17607;DHT22;8922;52.240;20.980;2022-08-01T02:19:57;15.50;99.90
17607;DHT22;8922;52.240;20.980;2022-08-01T02:22:29;15.50;99.90
17607;DHT22;8922;52.240;20.980;2022-08-01T02:25:02;15.40;99.90
17607;DHT22;8922;52.240;20.980;2022-08-01T02:27:33;15.40;99.90
17607;DHT22;8922;52.240;20.980;2022-08-01T02:30:03;15.30;99.90
17607;DHT22;8922;52.240;20.980;2022-08-01T02:32:34;15.30;99.90
17607;DHT22;8922;52.240;20.980;2022-08-01T02:35:03;15.30;99.90
17607;DHT22;8922;52.240;20.980;2022-08-01T02:37:36;15.30;99.90
17607;DHT22;8922;52.240;20.980;2022-08-01T02:40:08;15.20;99.90
17607;DHT22;8922;52.240;20.980;2022-08-01T02:42:36;15.20;99.90
17607;DHT22;8922;52.240;20.980;2022-08-01T02:45:05;15.10;99.90
17607;DHT22;8922;52.240;20.980;2022-08-01T02:47:35;15.10;99.90
17607;DHT22;8922;52.240;20.980;2022-08-01T02:50:03;15.10;99.90
17607;DHT22;8922;52.240;20.980;2022-08-01T02:52:31;15.00;99.90
17607;DHT22;8922;52.240;20.980;2022-08-01T02:55:01;15.00;99.90
17607;DHT22;8922;52.240;20.980;2022-08-01T02:57:29;15.00;99.90
17607;DHT22;8922;52.240;20.980;2022-08-01T02:59:58;15.00;99.90
17607;DHT22;8922;52.240;20.980;2022-08-01T03:02:26;14.90;99.90
17607;DHT22;8922;52.240;20.980;2022-08-01T03:04:54;14.90;99.90
17607;DHT22;8922;52.240;20.980;2022-08-01T03:07:22;14.90;99.90
17607;DHT22;8922;52.240;20.980;2022-08-01T03:09:49;14.90;99.90
17607;DHT22;8922;52.240;20.980;2022-08-01T03:12:19;14.90;99.90
17607;DHT22;8922;52.240;20.980;2022-08-01T03:14:51;14.90;99.90
17607;DHT22;8922;52.240;20.980;2022-08-01T03:17:21;14.80;99.90
17607;DHT22;8922;52.240;20.980;2022-08-01T03:19:50;14.80;99.90
17607;DHT22;8922;52.240;20.980;2022-08-01T03:22:18;14.80;99.90
17607;DHT22;8922;52.240;20.980;2022-08-01T03:24:51;14.80;99.90
17607;DHT22;8922;52.240;20.980;2022-08-01T03:27:21;14.80;99.90
17607;DHT22;8922;52.240;20.980;2022-08-01T03:29:50;14.70;99.90
17607;DHT22;8922;52.240;20.980;2022-08-01T03:32:18;14.70;99.90
17607;DHT22;8922;52.240;20.980;2022-08-01T03:34:46;14.70;99.90
17607;DHT22;8922;52.240;20.980;2022-08-01T03:37:19;14.70;99.90
17607;DHT22;8922;52.240;20.980;2022-08-01T03:39:54;14.70;99.90
17607;DHT22;8922;52.240;20.980;2022-08-01T03:42:29;14.70;99.90
17607;DHT22;8922;52.240;20.980;2022-08-01T03:45:02;14.70;99.90
17607;DHT22;8922;52.240;20.980;2022-08-01T03:47:32;14.80;99.90
17607;DHT22;8922;52.240;20.980;2022-08-01T03:50:00;14.80;99.90
17607;DHT22;8922;52.240;20.980;2022-08-01T03:52:30;14.80;99.90
17607;DHT22;8922;52.240;20.980;2022-08-01T03:54:59;14.80;99.90
17607;DHT22;8922;52.240;20.980;2022-08-01T03:57:29;14.80;99.90
17607;DHT22;8922;52.240;20.980;2022-08-01T03:59:57;14.80;99.90
17607;DHT22;8922;52.240;20.980;2022-08-01T04:02:26;14.80;99.90
17607;DHT22;8922;52.240;20.980;2022-08-01T04:04:53;14.90;99.90
17607;DHT22;8922;52.240;20.980;2022-08-01T04:07:22;14.90;99.90
17607;DHT22;8922;52.240;20.980;2022-08-01T04:09:49;14.90;99.90
17607;DHT22;8922;52.240;20.980;2022-08-01T04:12:16;14.90;99.90
17607;DHT22;8922;52.240;20.980;2022-08-01T04:14:44;15.00;99.90
17607;DHT22;8922;52.240;20.980;2022-08-01T04:17:11;15.00;99.90
17607;DHT22;8922;52.240;20.980;2022-08-01T04:19:39;15.00;99.90
17607;DHT22;8922;52.240;20.980;2022-08-01T04:22:07;15.10;99.90
17607;DHT22;8922;52.240;20.980;2022-08-01T04:24:36;15.10;99.90
17607;DHT22;8922;52.240;20.980;2022-08-01T04:27:08;15.20;99.90
17607;DHT22;8922;52.240;20.980;2022-08-01T04:29:37;15.20;99.90
17607;DHT22;8922;52.240;20.980;2022-08-01T04:32:07;15.20;99.90
17607;DHT22;8922;52.240;20.980;2022-08-01T04:34:38;15.30;99.90
17607;DHT22;8922;52.240;20.980;2022-08-01T04:37:07;15.30;99.90
17607;DHT22;8922;52.240;20.980;2022-08-01T04:39:37;15.40;99.90
17607;DHT22;8922;52.240;20.980;2022-08-01T04:42:06;15.40;99.90
17607;DHT22;8922;52.240;20.980;2022-08-01T04:44:33;15.40;99.90
17607;DHT22;8922;52.240;20.980;2022-08-01T04:47:02;15.50;99.90
17607;DHT22;8922;52.240;20.980;2022-08-01T04:49:30;15.50;99.90
17607;DHT22;8922;52.240;20.980;2022-08-01T04:51:57;15.60;99.90
17607;DHT22;8922;52.240;20.980;2022-08-01T04:54:25;15.60;99.90
17607;DHT22;8922;52.240;20.980;2022-08-01T04:56:53;15.70;99.90
17607;DHT22;8922;52.240;20.980;2022-08-01T04:59:21;15.70;99.90
17607;DHT22;8922;52.240;20.980;2022-08-01T05:02:06;15.80;99.90
17607;DHT22;8922;52.240;20.980;2022-08-01T05:04:35;15.80;99.90
17607;DHT22;8922;52.240;20.980;2022-08-01T05:07:03;15.80;99.90
17607;DHT22;8922;52.240;20.980;2022-08-01T05:09:30;15.90;99.90
17607;DHT22;8922;52.240;20.980;2022-08-01T05:11:57;15.80;99.90
17607;DHT22;8922;52.240;20.980;2022-08-01T05:14:24;15.80;99.90
17607;DHT22;8922;52.240;20.980;2022-08-01T05:16:52;15.80;99.90
17607;DHT22;8922;52.240;20.980;2022-08-01T05:19:19;15.80;99.90
17607;DHT22;8922;52.240;20.980;2022-08-01T05:21:48;15.80;99.90
17607;DHT22;8922;52.240;20.980;2022-08-01T05:24:15;15.70;99.90
17607;DHT22;8922;52.240;20.980;2022-08-01T05:26:41;15.70;99.90
17607;DHT22;8922;52.240;20.980;2022-08-01T05:29:08;15.60;99.90
17607;DHT22;8922;52.240;20.980;2022-08-01T05:31:35;15.60;99.90
17607;DHT22;8922;52.240;20.980;2022-08-01T05:34:02;15.70;99.90
17607;DHT22;8922;52.240;20.980;2022-08-01T05:36:29;15.70;99.90
17607;DHT22;8922;52.240;20.980;2022-08-01T05:38:58;15.80;99.90
17607;DHT22;8922;52.240;20.980;2022-08-01T05:41:24;15.90;99.90
17607;DHT22;8922;52.240;20.980;2022-08-01T05:43:51;15.90;99.90
17607;DHT22;8922;52.240;20.980;2022-08-01T05:46:18;16.10;99.90
17607;DHT22;8922;52.240;20.980;2022-08-01T05:48:45;16.20;99.90
17607;DHT22;8922;52.240;20.980;2022-08-01T05:51:12;16.30;99.90
17607;DHT22;8922;52.240;20.980;2022-08-01T05:53:39;16.30;99.90
17607;DHT22;8922;52.240;20.980;2022-08-01T05:56:09;16.40;99.90
17607;DHT22;8922;52.240;20.980;2022-08-01T05:58:36;16.50;99.90
17607;DHT22;8922;52.240;20.980;2022-08-01T06:01:03;16.50;99.90
17607;DHT22;8922;52.240;20.980;2022-08-01T06:03:29;16.60;99.90
17607;DHT22;8922;52.240;20.980;2022-08-01T06:05:58;16.70;99.90
17607;DHT22;8922;52.240;20.980;2022-08-01T06:08:25;16.80;99.90
17607;DHT22;8922;52.240;20.980;2022-08-01T06:10:52;16.90;99.90
17607;DHT22;8922;52.240;20.980;2022-08-01T06:13:20;17.00;99.90
17607;DHT22;8922;52.240;20.980;2022-08-01T06:15:47;17.10;99.90
17607;DHT22;8922;52.240;20.980;2022-08-01T06:18:14;17.10;99.90
17607;DHT22;8922;52.240;20.980;2022-08-01T06:20:41;17.30;99.90
17607;DHT22;8922;52.240;20.980;2022-08-01T06:23:08;17.40;99.90
17607;DHT22;8922;52.240;20.980;2022-08-01T06:25:35;17.50;99.90
17607;DHT22;8922;52.240;20.980;2022-08-01T06:28:03;17.60;99.90
17607;DHT22;8922;52.240;20.980;2022-08-01T06:30:31;17.70;99.90
17607;DHT22;8922;52.240;20.980;2022-08-01T06:32:58;17.80;99.90
17607;DHT22;8922;52.240;20.980;2022-08-01T06:35:25;17.90;99.90
17607;DHT22;8922;52.240;20.980;2022-08-01T06:37:52;18.00;99.90
17607;DHT22;8922;52.240;20.980;2022-08-01T06:40:19;18.10;99.90
17607;DHT22;8922;52.240;20.980;2022-08-01T06:42:45;18.10;99.90
17607;DHT22;8922;52.240;20.980;2022-08-01T06:45:13;18.20;99.90
17607;DHT22;8922;52.240;20.980;2022-08-01T06:47:43;18.30;99.90
17607;DHT22;8922;52.240;20.980;2022-08-01T06:50:10;18.40;99.90
17607;DHT22;8922;52.240;20.980;2022-08-01T06:52:39;18.40;99.90
17607;DHT22;8922;52.240;20.980;2022-08-01T06:55:07;18.50;99.90
17607;DHT22;8922;52.240;20.980;2022-08-01T06:57:34;18.50;99.90
17607;DHT22;8922;52.240;20.980;2022-08-01T07:00:04;18.60;99.90
17607;DHT22;8922;52.240;20.980;2022-08-01T07:02:33;18.70;99.90
17607;DHT22;8922;52.240;20.980;2022-08-01T07:05:01;18.70;99.90
17607;DHT22;8922;52.240;20.980;2022-08-01T07:07:29;18.70;99.90
17607;DHT22;8922;52.240;20.980;2022-08-01T07:09:56;18.80;99.90
17607;DHT22;8922;52.240;20.980;2022-08-01T07:12:22;18.90;99.90
17607;DHT22;8922;52.240;20.980;2022-08-01T07:14:49;18.90;99.90
17607;DHT22;8922;52.240;20.980;2022-08-01T07:17:16;19.00;99.90
17607;DHT22;8922;52.240;20.980;2022-08-01T07:19:45;19.20;99.90
17607;DHT22;8922;52.240;20.980;2022-08-01T07:22:14;19.20;99.90
17607;DHT22;8922;52.240;20.980;2022-08-01T07:24:41;19.30;99.90
17607;DHT22;8922;52.240;20.980;2022-08-01T07:27:08;19.30;99.90
17607;DHT22;8922;52.240;20.980;2022-08-01T07:29:35;19.40;99.90
17607;DHT22;8922;52.240;20.980;2022-08-01T07:32:02;19.50;99.90
17607;DHT22;8922;52.240;20.980;2022-08-01T07:34:28;19.60;99.90
17607;DHT22;8922;52.240;20.980;2022-08-01T07:36:55;19.70;99.90
17607;DHT22;8922;52.240;20.980;2022-08-01T07:39:24;19.90;99.90
17607;DHT22;8922;52.240;20.980;2022-08-01T07:41:50;20.00;99.90
17607;DHT22;8922;52.240;20.980;2022-08-01T07:44:17;20.00;99.90
17607;DHT22;8922;52.240;20.980;2022-08-01T07:46:44;20.10;99.90
17607;DHT22;8922;52.240;20.980;2022-08-01T07:49:11;20.20;99.90
17607;DHT22;8922;52.240;20.980;2022-08-01T07:51:37;20.30;99.90
17607;DHT22;8922;52.240;20.980;2022-08-01T07:54:04;20.40;99.90
17607;DHT22;8922;52.240;20.980;2022-08-01T07:56:33;20.50;99.90
17607;DHT22;8922;52.240;20.980;2022-08-01T07:59:00;20.50;99.90
17607;DHT22;8922;52.240;20.980;2022-08-01T08:01:27;20.60;99.90
17607;DHT22;8922;52.240;20.980;2022-08-01T08:03:54;20.80;99.90
17607;DHT22;8922;52.240;20.980;2022-08-01T08:06:20;20.90;99.90
17607;DHT22;8922;52.240;20.980;2022-08-01T08:08:48;21.10;99.90
17607;DHT22;8922;52.240;20.980;2022-08-01T08:11:14;21.20;99.90
17607;DHT22;8922;52.240;20.980;2022-08-01T08:13:43;21.30;99.90
17607;DHT22;8922;52.240;20.980;2022-08-01T08:16:09;21.40;99.90
17607;DHT22;8922;52.240;20.980;2022-08-01T08:18:36;21.40;99.90
17607;DHT22;8922;52.240;20.980;2022-08-01T08:21:03;21.50;99.90
17607;DHT22;8922;52.240;20.980;2022-08-01T08:23:30;21.60;99.90
17607;DHT22;8922;52.240;20.980;2022-08-01T08:26:14;21.70;99.90
17607;DHT22;8922;52.240;20.980;2022-08-01T08:28:43;21.70;99.90
17607;DHT22;8922;52.240;20.980;2022-08-01T08:31:10;21.90;99.90
17607;DHT22;8922;52.240;20.980;2022-08-01T08:33:36;22.00;99.90
17607;DHT22;8922;52.240;20.980;2022-08-01T08:36:04;22.10;99.90
17607;DHT22;8922;52.240;20.980;2022-08-01T08:38:30;22.30;99.90
17607;DHT22;8922;52.240;20.980;2022-08-01T08:40:57;22.40;99.90
17607;DHT22;8922;52.240;20.980;2022-08-01T08:43:24;22.60;99.90
17607;DHT22;8922;52.240;20.980;2022-08-01T08:45:54;22.60;99.90
17607;DHT22;8922;52.240;20.980;2022-08-01T08:48:21;22.70;99.90
17607;DHT22;8922;52.240;20.980;2022-08-01T08:50:48;22.80;99.90
17607;DHT22;8922;52.240;20.980;2022-08-01T08:53:16;22.90;99.90
17607;DHT22;8922;52.240;20.980;2022-08-01T08:55:44;23.10;99.90
17607;DHT22;8922;52.240;20.980;2022-08-01T08:58:12;23.20;99.90
17607;DHT22;8922;52.240;20.980;2022-08-01T09:00:40;23.30;99.90
17607;DHT22;8922;52.240;20.980;2022-08-01T09:03:08;23.50;99.90
17607;DHT22;8922;52.240;20.980;2022-08-01T09:05:35;23.70;99.90
17607;DHT22;8922;52.240;20.980;2022-08-01T09:08:06;23.60;99.90
17607;DHT22;8922;52.240;20.980;2022-08-01T09:10:33;23.70;99.90
17607;DHT22;8922;52.240;20.980;2022-08-01T09:13:05;23.70;99.90
17607;DHT22;8922;52.240;20.980;2022-08-01T09:15:43;23.70;99.90
17607;DHT22;8922;52.240;20.980;2022-08-01T09:21:15;23.70;99.90
17607;DHT22;8922;52.240;20.980;2022-08-01T09:23:44;23.90;99.90
17607;DHT22;8922;52.240;20.980;2022-08-01T09:26:12;23.90;99.90
17607;DHT22;8922;52.240;20.980;2022-08-01T09:28:40;23.90;99.90
17607;DHT22;8922;52.240;20.980;2022-08-01T09:31:08;24.00;99.90
17607;DHT22;8922;52.240;20.980;2022-08-01T09:33:52;24.30;99.90
17607;DHT22;8922;52.240;20.980;2022-08-01T09:36:22;24.60;99.90
17607;DHT22;8922;52.240;20.980;2022-08-01T09:38:50;24.90;99.90
17607;DHT22;8922;52.240;20.980;2022-08-01T09:41:17;25.10;99.90
17607;DHT22;8922;52.240;20.980;2022-08-01T09:43:54;25.20;99.90
17607;DHT22;8922;52.240;20.980;2022-08-01T09:46:21;25.40;99.90
17607;DHT22;8922;52.240;20.980;2022-08-01T09:48:58;25.60;99.90
17607;DHT22;8922;52.240;20.980;2022-08-01T09:51:31;25.80;99.30
17607;DHT22;8922;52.240;20.980;2022-08-01T09:53:59;25.90;98.10
17607;DHT22;8922;52.240;20.980;2022-08-01T09:56:26;26.10;97.60
17607;DHT22;8922;52.240;20.980;2022-08-01T09:59:01;26.40;97.60
17607;DHT22;8922;52.240;20.980;2022-08-01T10:01:29;26.70;96.10
17607;DHT22;8922;52.240;20.980;2022-08-01T10:04:09;26.90;94.70
17607;DHT22;8922;52.240;20.980;2022-08-01T10:06:38;26.90;93.90
17607;DHT22;8922;52.240;20.980;2022-08-01T10:09:05;27.00;93.30
17607;DHT22;8922;52.240;20.980;2022-08-01T10:11:32;27.00;93.00
17607;DHT22;8922;52.240;20.980;2022-08-01T10:13:59;27.20;93.10
17607;DHT22;8922;52.240;20.980;2022-08-01T10:16:27;27.30;92.50
17607;DHT22;8922;52.240;20.980;2022-08-01T10:18:55;27.40;92.30
17607;DHT22;8922;52.240;20.980;2022-08-01T10:21:23;27.50;91.90
17607;DHT22;8922;52.240;20.980;2022-08-01T10:23:54;27.70;91.40
17607;DHT22;8922;52.240;20.980;2022-08-01T10:26:25;27.70;90.40
17607;DHT22;8922;52.240;20.980;2022-08-01T10:28:53;27.70;90.40
17607;DHT22;8922;52.240;20.980;2022-08-01T10:31:20;27.70;90.10
17607;DHT22;8922;52.240;20.980;2022-08-01T10:33:47;27.60;90.30
17607;DHT22;8922;52.240;20.980;2022-08-01T10:36:18;27.80;90.60
17607;DHT22;8922;52.240;20.980;2022-08-01T10:38:46;27.90;90.40
17607;DHT22;8922;52.240;20.980;2022-08-01T10:41:15;28.20;90.00
17607;DHT22;8922;52.240;20.980;2022-08-01T10:43:42;28.50;88.00
17607;DHT22;8922;52.240;20.980;2022-08-01T10:46:10;28.60;85.80
17607;DHT22;8922;52.240;20.980;2022-08-01T10:48:43;28.60;85.40
17607;DHT22;8922;52.240;20.980;2022-08-01T10:51:12;28.40;85.60
17607;DHT22;8922;52.240;20.980;2022-08-01T10:53:46;28.20;86.30
17607;DHT22;8922;52.240;20.980;2022-08-01T10:56:14;28.10;87.30
17607;DHT22;8922;52.240;20.980;2022-08-01T10:58:43;28.00;87.30
17607;DHT22;8922;52.240;20.980;2022-08-01T11:03:58;28.10;86.30
17607;DHT22;8922;52.240;20.980;2022-08-01T11:06:41;28.30;85.50
17607;DHT22;8922;52.240;20.980;2022-08-01T11:12:08;28.70;81.60
17607;DHT22;8922;52.240;20.980;2022-08-01T11:17:36;28.70;80.10
17607;DHT22;8922;52.240;20.980;2022-08-01T11:20:08;28.60;79.20
17607;DHT22;8922;52.240;20.980;2022-08-01T11:26:12;28.60;79.10
17607;DHT22;8922;52.240;20.980;2022-08-01T11:28:42;28.80;78.40
17607;DHT22;8922;52.240;20.980;2022-08-01T11:31:30;28.90;77.20
17607;DHT22;8922;52.240;20.980;2022-08-01T11:33:59;29.00;76.30
17607;DHT22;8922;52.240;20.980;2022-08-01T11:36:26;29.20;76.60
17607;DHT22;8922;52.240;20.980;2022-08-01T11:39:13;29.30;76.60
17607;DHT22;8922;52.240;20.980;2022-08-01T11:41:42;29.50;75.80
17607;DHT22;8922;52.240;20.980;2022-08-01T11:44:12;29.40;75.00
17607;DHT22;8922;52.240;20.980;2022-08-01T11:46:53;29.50;75.00
17607;DHT22;8922;52.240;20.980;2022-08-01T11:49:29;29.60;74.20
17607;DHT22;8922;52.240;20.980;2022-08-01T11:51:59;29.70;73.60
17607;DHT22;8922;52.240;20.980;2022-08-01T11:54:28;29.70;73.30
17607;DHT22;8922;52.240;20.980;2022-08-01T11:56:56;29.70;73.00
17607;DHT22;8922;52.240;20.980;2022-08-01T11:59:24;29.70;72.80
17607;DHT22;8922;52.240;20.980;2022-08-01T12:01:52;29.60;71.90
17607;DHT22;8922;52.240;20.980;2022-08-01T12:04:19;29.50;72.00
17607;DHT22;8922;52.240;20.980;2022-08-01T12:06:46;29.40;72.00
17607;DHT22;8922;52.240;20.980;2022-08-01T12:09:20;29.20;72.50
17607;DHT22;8922;52.240;20.980;2022-08-01T12:11:47;29.10;72.80
17607;DHT22;8922;52.240;20.980;2022-08-01T12:14:21;29.00;73.40
17607;DHT22;8922;52.240;20.980;2022-08-01T12:16:51;28.90;74.30
17607;DHT22;8922;52.240;20.980;2022-08-01T12:19:22;28.90;75.00
17607;DHT22;8922;52.240;20.980;2022-08-01T12:22:05;29.10;75.30
17607;DHT22;8922;52.240;20.980;2022-08-01T12:24:33;29.30;74.30
17607;DHT22;8922;52.240;20.980;2022-08-01T12:27:00;29.50;73.20
17607;DHT22;8922;52.240;20.980;2022-08-01T12:29:34;29.50;72.50
17607;DHT22;8922;52.240;20.980;2022-08-01T12:32:03;29.50;72.10
17607;DHT22;8922;52.240;20.980;2022-08-01T12:34:30;29.50;71.80
17607;DHT22;8922;52.240;20.980;2022-08-01T12:37:00;29.50;72.00
17607;DHT22;8922;52.240;20.980;2022-08-01T12:39:34;29.60;72.40
17607;DHT22;8922;52.240;20.980;2022-08-01T12:42:05;29.70;72.00
17607;DHT22;8922;52.240;20.980;2022-08-01T12:44:33;29.70;71.70
17607;DHT22;8922;52.240;20.980;2022-08-01T12:47:02;29.80;72.10
17607;DHT22;8922;52.240;20.980;2022-08-01T12:49:30;29.90;71.50
17607;DHT22;8922;52.240;20.980;2022-08-01T12:51:57;30.10;70.80
17607;DHT22;8922;52.240;20.980;2022-08-01T12:54:24;30.20;70.10
17607;DHT22;8922;52.240;20.980;2022-08-01T12:56:51;30.20;70.10
17607;DHT22;8922;52.240;20.980;2022-08-01T12:59:20;30.20;70.20
17607;DHT22;8922;52.240;20.980;2022-08-01T13:01:47;30.20;70.80
17607;DHT22;8922;52.240;20.980;2022-08-01T13:04:16;30.30;69.70
17607;DHT22;8922;52.240;20.980;2022-08-01T13:06:42;30.30;69.10
17607;DHT22;8922;52.240;20.980;2022-08-01T13:09:09;30.30;68.90
17607;DHT22;8922;52.240;20.980;2022-08-01T13:11:38;30.20;68.80
17607;DHT22;8922;52.240;20.980;2022-08-01T13:14:06;30.10;69.20
17607;DHT22;8922;52.240;20.980;2022-08-01T13:16:33;30.10;70.00
17607;DHT22;8922;52.240;20.980;2022-08-01T13:19:11;30.00;69.40
17607;DHT22;8922;52.240;20.980;2022-08-01T13:21:39;30.00;69.10
17607;DHT22;8922;52.240;20.980;2022-08-01T13:24:23;29.90;69.50
17607;DHT22;8922;52.240;20.980;2022-08-01T13:26:52;29.90;69.80
17607;DHT22;8922;52.240;20.980;2022-08-01T13:29:22;29.90;69.40
17607;DHT22;8922;52.240;20.980;2022-08-01T13:31:55;29.90;69.80
17607;DHT22;8922;52.240;20.980;2022-08-01T13:34:30;29.90;69.80
17607;DHT22;8922;52.240;20.980;2022-08-01T13:36:58;30.00;69.90
17607;DHT22;8922;52.240;20.980;2022-08-01T13:39:27;30.10;69.60
17607;DHT22;8922;52.240;20.980;2022-08-01T13:42:07;30.00;69.40
17607;DHT22;8922;52.240;20.980;2022-08-01T13:44:34;29.70;69.40
17607;DHT22;8922;52.240;20.980;2022-08-01T13:47:01;29.60;69.80
17607;DHT22;8922;52.240;20.980;2022-08-01T13:49:28;29.50;70.20
17607;DHT22;8922;52.240;20.980;2022-08-01T13:51:55;29.50;70.00
17607;DHT22;8922;52.240;20.980;2022-08-01T13:54:23;29.50;70.40
17607;DHT22;8922;52.240;20.980;2022-08-01T13:56:50;29.50;70.40
17607;DHT22;8922;52.240;20.980;2022-08-01T13:59:17;29.40;70.30
17607;DHT22;8922;52.240;20.980;2022-08-01T14:01:43;29.30;70.50
17607;DHT22;8922;52.240;20.980;2022-08-01T14:04:10;29.40;70.30
17607;DHT22;8922;52.240;20.980;2022-08-01T14:06:37;29.40;70.30
17607;DHT22;8922;52.240;20.980;2022-08-01T14:09:04;29.50;70.00
17607;DHT22;8922;52.240;20.980;2022-08-01T14:11:33;29.60;69.80
17607;DHT22;8922;52.240;20.980;2022-08-01T14:14:00;29.60;69.60
17607;DHT22;8922;52.240;20.980;2022-08-01T14:16:27;29.40;69.40
17607;DHT22;8922;52.240;20.980;2022-08-01T14:18:54;29.30;68.90
17607;DHT22;8922;52.240;20.980;2022-08-01T14:21:21;29.30;69.30
17607;DHT22;8922;52.240;20.980;2022-08-01T14:23:48;29.30;70.10
17607;DHT22;8922;52.240;20.980;2022-08-01T14:26:14;29.40;69.00
17607;DHT22;8922;52.240;20.980;2022-08-01T14:28:43;29.30;68.20
17607;DHT22;8922;52.240;20.980;2022-08-01T14:31:10;29.30;68.00
17607;DHT22;8922;52.240;20.980;2022-08-01T14:33:36;29.20;68.20
17607;DHT22;8922;52.240;20.980;2022-08-01T14:36:04;29.10;68.70
17607;DHT22;8922;52.240;20.980;2022-08-01T14:38:30;29.00;69.10
17607;DHT22;8922;52.240;20.980;2022-08-01T14:40:57;28.90;69.30
17607;DHT22;8922;52.240;20.980;2022-08-01T14:43:24;28.80;69.50
17607;DHT22;8922;52.240;20.980;2022-08-01T14:45:53;28.70;69.90
17607;DHT22;8922;52.240;20.980;2022-08-01T14:48:20;28.70;70.00
17607;DHT22;8922;52.240;20.980;2022-08-01T14:50:46;28.80;70.40
17607;DHT22;8922;52.240;20.980;2022-08-01T14:53:13;28.90;69.90
17607;DHT22;8922;52.240;20.980;2022-08-01T14:55:40;28.90;69.80
17607;DHT22;8922;52.240;20.980;2022-08-01T14:58:07;28.80;70.30
17607;DHT22;8922;52.240;20.980;2022-08-01T15:00:34;28.80;70.30
17607;DHT22;8922;52.240;20.980;2022-08-01T15:03:02;28.70;69.70
17607;DHT22;8922;52.240;20.980;2022-08-01T15:05:29;28.60;69.40
17607;DHT22;8922;52.240;20.980;2022-08-01T15:07:56;28.40;69.50
17607;DHT22;8922;52.240;20.980;2022-08-01T15:10:23;28.30;69.40
17607;DHT22;8922;52.240;20.980;2022-08-01T15:12:50;28.20;70.30
17607;DHT22;8922;52.240;20.980;2022-08-01T15:15:17;28.10;71.40
17607;DHT22;8922;52.240;20.980;2022-08-01T15:17:44;28.00;71.70
17607;DHT22;8922;52.240;20.980;2022-08-01T15:20:12;27.90;72.70
17607;DHT22;8922;52.240;20.980;2022-08-01T15:22:39;27.70;72.40
17607;DHT22;8922;52.240;20.980;2022-08-01T15:25:06;27.60;72.90
17607;DHT22;8922;52.240;20.980;2022-08-01T15:27:33;27.50;73.10
17607;DHT22;8922;52.240;20.980;2022-08-01T15:30:00;27.40;73.50
17607;DHT22;8922;52.240;20.980;2022-08-01T15:32:27;27.20;74.30
17607;DHT22;8922;52.240;20.980;2022-08-01T15:34:55;27.10;74.70
17607;DHT22;8922;52.240;20.980;2022-08-01T15:37:23;27.00;74.70
17607;DHT22;8922;52.240;20.980;2022-08-01T15:39:50;27.00;75.00
17607;DHT22;8922;52.240;20.980;2022-08-01T15:42:17;26.90;75.30
17607;DHT22;8922;52.240;20.980;2022-08-01T15:44:46;27.00;75.80
17607;DHT22;8922;52.240;20.980;2022-08-01T15:47:13;27.00;75.70
17607;DHT22;8922;52.240;20.980;2022-08-01T15:49:40;27.10;75.50
17607;DHT22;8922;52.240;20.980;2022-08-01T15:52:08;27.10;75.30
17607;DHT22;8922;52.240;20.980;2022-08-01T15:54:36;27.10;75.60